Time;durP1;ratioP1;P1;durP2;ratioP2;P2;SDS_P1;SDS_P2;PMS_P1;PMS_P2;Temp;Humidity;BMP_temperature;BMP_pressure;BME280_temperature;BME280_humidity;BME280_pressure;Samples;Min_cycle;Max_cycle;Signal;HPM_P1;HPM_P2
2022/06/23 00:01:26;;;;;;;18.35;11.40;;;;;;;;;;5012228;28;20091;-64
2022/06/23 00:03:56;;;;;;;17.83;11.52;;;;;;;;;;5012714;28;20547;-64
2022/06/23 00:06:45;;;;;;;17.70;11.90;;;;;;;;;;5013762;28;20033;-64
2022/06/23 00:09:26;;;;;;;16.17;11.40;;;;;;;;;;5003524;28;20049;-64
2022/06/23 00:11:52;;;;;;;17.95;11.43;;;;;;;;;;5014296;28;20022;-64
2022/06/23 00:14:18;;;;;;;18.25;11.80;;;;;;;;;;5014614;28;20022;-65
2022/06/23 00:16:44;;;;;;;17.23;11.27;;;;;;;;;;5012799;28;20034;-64
2022/06/23 00:19:14;;;;;;;15.98;11.23;;;;;;;;;;5013565;28;20107;-64
2022/06/23 00:21:41;;;;;;;18.17;11.70;;;;;;;;;;5014002;28;20025;-64
2022/06/23 00:24:13;;;;;;;20.08;11.50;;;;;;;;;;5014087;28;20109;-64
2022/06/23 00:26:39;;;;;;;20.67;11.70;;;;;;;;;;5013029;28;20029;-64
2022/06/23 00:29:10;;;;;;;17.30;11.52;;;;;;;;;;5012550;28;20108;-64
2022/06/23 00:31:38;;;;;;;17.50;11.73;;;;;;;;;;5013709;28;20045;-64
2022/06/23 00:34:23;;;;;;;18.02;11.88;;;;;;;;;;5013782;28;20018;-64
2022/06/23 00:36:56;;;;;;;16.27;11.15;;;;;;;;;;5013991;28;20032;-66
2022/06/23 00:39:26;;;;;;;16.77;11.05;;;;;;;;;;5012964;28;20379;-64
2022/06/23 00:41:52;;;;;;;16.60;11.00;;;;;;;;;;5013310;28;20478;-64
2022/06/23 00:44:30;;;;;;;19.15;11.48;;;;;;;;;;5013670;28;20130;-64
2022/06/23 00:46:58;;;;;;;16.98;11.90;;;;;;;;;;5013573;28;20504;-64
2022/06/23 00:49:54;;;;;;;18.65;11.57;;;;;;;;;;5012880;28;20038;-64
2022/06/23 00:52:19;;;;;;;18.33;11.50;;;18.60;82.90;;;;;;4997015;28;20050;-64
2022/06/23 00:54:51;;;;;;;20.40;11.60;;;17.50;99.90;;;;;;4995549;28;20112;-64
2022/06/23 00:57:40;;;;;;;20.83;12.00;;;17.40;99.90;;;;;;5012696;28;20026;-63
2022/06/23 01:00:14;;;;;;;17.58;11.75;;;17.40;99.90;;;;;;5013669;28;20117;-63
2022/06/23 01:02:56;;;;;;;18.95;12.02;;;17.40;99.90;;;;;;4995748;28;20490;-64
2022/06/23 01:05:30;;;;;;;16.77;11.02;;;17.30;99.90;;;;;;5013258;28;20034;-64
2022/06/23 01:08:03;;;;;;;24.13;11.77;;;17.30;99.90;;;;;;5012802;28;20367;-64
2022/06/23 01:11:04;;;;;;;20.95;12.15;;;17.30;99.90;;;;;;5013266;28;20095;-63
2022/06/23 01:13:29;;;;;;;18.95;11.65;;;17.30;99.90;;;;;;5012597;28;20113;-64
2022/06/23 01:16:22;;;;;;;17.17;10.95;;;17.30;99.90;;;;;;5028809;23;20057;-60
2022/06/23 01:19:12;;;;;;;20.38;11.63;;;17.20;99.90;;;;;;5011137;28;20034;-61
2022/06/23 01:21:46;;;;;;;20.35;11.30;;;17.20;99.90;;;;;;5012529;28;20398;-60
2022/06/23 01:24:40;;;;;;;18.30;11.57;;;17.10;99.90;;;;;;5012315;28;20474;-60
2022/06/23 01:27:39;;;;;;;18.35;11.82;;;17.10;99.90;;;;;;4992308;28;20042;-61
2022/06/23 01:30:08;;;;;;;18.48;11.93;;;17.10;99.90;;;;;;4984299;28;20037;-61
2022/06/23 01:32:36;;;;;;;;;;;17.00;99.90;;;;;;5012623;28;20049;-61
2022/06/23 01:35:22;;;;;;;20.85;11.95;;;17.00;99.90;;;;;;5012356;28;19906;-61
2022/06/23 01:37:57;;;;;;;18.08;11.15;;;17.00;99.90;;;;;;5011228;28;20033;-61
2022/06/23 01:40:34;;;;;;;17.65;11.95;;;16.90;99.90;;;;;;5012433;28;20073;-61
2022/06/23 01:43:32;;;;;;;18.05;11.98;;;16.90;99.90;;;;;;5012323;28;20029;-61
2022/06/23 01:46:11;;;;;;;18.27;11.23;;;16.80;99.90;;;;;;5009053;28;20405;-61
2022/06/23 01:48:53;;;;;;;20.75;12.23;;;16.80;99.90;;;;;;4993990;28;20033;-61
2022/06/23 01:51:40;;;;;;;19.25;11.88;;;16.70;99.90;;;;;;5012194;28;20141;-61
2022/06/23 01:54:14;;;;;;;20.42;12.15;;;16.70;99.90;;;;;;4994583;28;20113;-62
2022/06/23 01:56:49;;;;;;;19.45;12.27;;;;;;;;;;4994572;28;20033;-62
2022/06/23 01:59:18;;;;;;;19.63;12.18;;;;;;;;;;5011288;28;20033;-61
2022/06/23 02:01:47;;;;;;;18.48;12.20;;;;;;;;;;5012038;28;20046;-61
2022/06/23 02:04:27;;;;;;;17.40;11.82;;;16.70;99.90;;;;;;5012321;28;20049;-61
2022/06/23 02:06:58;;;;;;;19.88;11.88;;;16.60;99.90;;;;;;4994431;28;20028;-61
2022/06/23 02:09:29;;;;;;;21.48;11.65;;;16.60;99.90;;;;;;5011472;28;20025;-61
2022/06/23 02:11:55;;;;;;;19.85;12.05;;;16.60;99.90;;;;;;5010695;28;20063;-61
2022/06/23 02:14:21;;;;;;;22.17;12.25;;;16.60;99.90;;;;;;5012073;28;20018;-62
2022/06/23 02:17:08;;;;;;;19.55;11.45;;;16.60;99.90;;;;;;5011948;28;20038;-62
2022/06/23 02:19:41;;;;;;;20.13;11.90;;;16.60;99.90;;;;;;4994078;28;20018;-61
2022/06/23 02:22:15;;;;;;;19.92;12.00;;;16.60;99.90;;;;;;5011876;28;20034;-62
2022/06/23 02:25:09;;;;;;;18.92;11.88;;;16.50;99.90;;;;;;5011810;28;20050;-63
2022/06/23 02:27:37;;;;;;;22.10;12.40;;;16.50;99.90;;;;;;5010868;28;20548;-62
2022/06/23 02:30:12;;;;;;;;;;;16.50;99.90;;;;;;5012158;28;20030;-61
2022/06/23 02:32:59;;;;;;;19.35;11.93;;;16.50;99.90;;;;;;5010584;28;19905;-61
2022/06/23 02:35:40;;;;;;;21.00;11.82;;;16.40;99.90;;;;;;5011740;28;20435;-60
2022/06/23 02:38:20;;;;;;;18.83;12.48;;;16.40;99.90;;;;;;4993596;28;20064;-62
2022/06/23 02:40:50;;;;;;;20.20;12.15;;;16.40;99.90;;;;;;5011687;28;20022;-60
2022/06/23 02:43:41;;;;;;;18.92;11.85;;;16.30;99.90;;;;;;5011610;28;20030;-61
2022/06/23 02:46:25;;;;;;;22.13;11.85;;;16.30;99.90;;;;;;5011530;28;20034;-61
2022/06/23 02:48:57;;;;;;;16.83;11.65;;;16.30;99.90;;;;;;5010878;28;20076;-61
2022/06/23 02:52:10;;;;;;;17.17;11.70;;;16.30;99.90;;;;;;5013533;28;20042;-61
2022/06/23 02:54:48;;;;;;;20.65;12.13;;;16.30;99.90;;;;;;4961501;28;20427;-62
2022/06/23 02:57:36;;;;;;;22.75;11.63;;;16.30;99.90;;;;;;5014401;28;20022;-62
2022/06/23 03:00:20;;;;;;;20.52;11.38;;;16.20;99.90;;;;;;4997325;28;20036;-61
2022/06/23 03:03:07;;;;;;;20.45;11.70;;;16.20;99.90;;;;;;5014938;28;20053;-62
2022/06/23 03:05:55;;;;;;;17.90;11.93;;;16.20;99.90;;;;;;4997136;28;20120;-60
2022/06/23 03:08:27;;;;;;;21.43;12.03;;;16.20;99.90;;;;;;4996486;28;20386;-63
2022/06/23 03:11:15;;;;;;;18.95;11.50;;;16.20;99.90;;;;;;5014791;28;20018;-61
2022/06/23 03:13:47;;;;;;;21.83;12.25;;;16.20;99.90;;;;;;5006318;28;20041;-61
2022/06/23 03:16:19;;;;;;;19.58;12.07;;;16.20;99.90;;;;;;5014384;28;20030;-61
2022/06/23 03:19:06;;;;;;;20.90;12.70;;;16.20;99.90;;;;;;4996172;28;20049;-61
2022/06/23 03:21:52;;;;;;;18.42;12.05;;;16.20;99.90;;;;;;5014486;28;20030;-55
2022/06/23 03:24:29;;;;;;;20.92;13.05;;;16.20;99.90;;;;;;5014284;28;20482;-61
2022/06/23 03:27:04;;;;;;;21.85;12.82;;;16.20;99.90;;;;;;5014246;28;20014;-61
2022/06/23 03:29:46;;;;;;;19.42;12.55;;;16.10;99.90;;;;;;4996215;28;20032;-59
2022/06/23 03:32:18;;;;;;;19.98;11.93;;;16.20;99.90;;;;;;5014243;28;20026;-61
2022/06/23 03:35:04;;;;;;;22.70;12.35;;;16.20;99.90;;;;;;5014123;28;20076;-61
2022/06/23 03:37:55;;;;;;;18.45;11.95;;;16.10;99.90;;;;;;5002895;28;20129;-59
2022/06/23 03:43:31;;;;;;;20.92;11.70;;;16.10;99.90;;;;;;5014029;28;20552;-62
2022/06/23 03:46:18;;;;;;;19.67;12.27;;;16.10;99.90;;;;;;5013629;28;20033;-61
2022/06/23 03:48:50;;;;;;;20.42;11.27;;;16.10;99.90;;;;;;5013352;28;20390;-61
2022/06/23 03:51:29;;;;;;;19.20;11.95;;;16.10;99.90;;;;;;4996405;28;20049;-62
2022/06/23 03:53:55;;;;;;;;;;;16.10;99.90;;;;;;5014238;28;20378;-61
2022/06/23 03:56:25;;;;;;;19.25;12.10;;;16.10;99.90;;;;;;5013594;28;20262;-61
2022/06/23 03:58:56;;;;;;;20.60;12.38;;;16.10;99.90;;;;;;5013038;28;20089;-61
2022/06/23 04:01:31;;;;;;;19.65;11.77;;;16.10;99.90;;;;;;5013378;28;20026;-61
2022/06/23 04:04:11;;;;;;;21.13;12.38;;;16.10;99.90;;;;;;5013453;28;20490;-62
2022/06/23 04:06:41;;;;;;;20.65;13.05;;;16.20;99.90;;;;;;4995762;28;20544;-62
2022/06/23 04:09:13;;;;;;;20.77;12.95;;;16.20;99.90;;;;;;5012417;28;20209;-61
2022/06/23 04:11:51;;;;;;;22.25;13.05;;;16.30;99.90;;;;;;4995812;28;20409;-62
2022/06/23 04:14:41;;;;;;;24.05;12.95;;;16.30;99.90;;;;;;5013285;28;20033;-61
2022/06/23 04:17:26;;;;;;;19.60;12.20;;;16.40;99.90;;;;;;5012929;28;20025;-60
2022/06/23 04:20:08;;;;;;;18.85;12.05;;;16.40;99.90;;;;;;5013336;28;20402;-58
2022/06/23 04:22:47;;;;;;;26.58;12.95;;;16.40;99.90;;;;;;5013094;28;20486;-56
2022/06/23 04:25:14;;;;;;;;;;;16.40;99.90;;;;;;5013494;28;20057;-62
2022/06/23 04:27:47;;;;;;;20.58;13.32;;;16.50;99.90;;;;;;5012232;28;19945;-58
2022/06/23 04:30:38;;;;;;;21.08;13.57;;;16.50;99.90;;;;;;5013225;28;20081;-62
2022/06/23 04:33:07;;;;;;;18.13;11.90;;;16.50;99.90;;;;;;5012467;28;20394;-61
2022/06/23 04:35:38;;;;;;;19.98;13.20;;;16.60;99.90;;;;;;4995307;28;20394;-61
2022/06/23 04:38:14;;;;;;;21.95;13.00;;;16.70;99.90;;;;;;4994425;28;20037;-62
2022/06/23 04:40:42;;;;;;;20.02;13.52;;;16.80;99.90;;;;;;5013189;28;20037;-62
2022/06/23 04:43:35;;;;;;;27.73;12.65;;;16.80;99.90;;;;;;5012963;28;20022;-62
2022/06/23 04:46:17;;;;;;;18.70;12.80;;;16.90;99.90;;;;;;5012433;28;20026;-62
2022/06/23 04:48:55;;;;;;;24.77;13.05;;;17.00;99.90;;;;;;5011927;28;20091;-62
2022/06/23 04:51:24;;;;;;;19.70;13.40;;;17.00;99.90;;;;;;4995193;28;20429;-61
2022/06/23 04:53:53;;;;;;;;;;;17.10;99.90;;;;;;5012935;28;20486;-63
2022/06/23 04:57:03;;;;;;;18.95;12.65;;;17.20;99.90;;;;;;5012538;28;20362;-59
2022/06/23 04:59:34;;;;;;;17.65;12.75;;;17.30;99.90;;;;;;5008588;28;20038;-59
2022/06/23 05:02:18;;;;;;;27.75;14.45;;;17.40;99.90;;;;;;5012414;28;20490;-60
2022/06/23 05:04:46;;;;;;;24.95;13.85;;;;;;;;;;5012259;28;20041;-62
2022/06/23 05:07:42;;;;;;;23.27;13.52;;;17.50;99.90;;;;;;4993573;28;20486;-59
2022/06/23 05:10:15;;;;;;;19.55;12.52;;;;;;;;;;4992939;28;20030;-63
2022/06/23 05:12:47;;;;;;;20.50;12.90;;;17.60;99.90;;;;;;5006726;28;20022;-60
2022/06/23 05:15:18;;;;;;;20.02;14.00;;;;;;;;;;4974824;28;20077;-61
2022/06/23 05:17:54;;;;;;;20.95;13.05;;;17.80;99.90;;;;;;4991478;28;20041;-62
2022/06/23 05:20:30;;;;;;;20.67;13.95;;;17.90;99.90;;;;;;4992696;28;20437;-61
2022/06/23 05:22:56;;;;;;;21.02;13.68;;;17.90;99.90;;;;;;4992471;28;20030;-57
2022/06/23 05:25:30;;;;;;;22.58;13.70;;;18.00;99.90;;;;;;4992623;28;20037;-62
2022/06/23 05:27:56;;;;;;;19.00;12.95;;;18.10;99.90;;;;;;4991210;28;20025;-61
2022/06/23 05:30:25;;;;;;;21.65;13.77;;;;;;;;;;4974368;28;20035;-63
2022/06/23 05:32:54;;;;;;;22.90;13.82;;;;;;;;;;4992181;28;20023;-61
2022/06/23 05:35:20;;;;;;;19.75;14.32;;;;;;;;;;4992140;28;20101;-61
2022/06/23 05:38:02;;;;;;;18.40;12.98;;;;;;;;;;4991141;28;20540;-61
2022/06/23 05:40:38;;;;;;;18.38;12.98;;;;;;;;;;4991931;28;20037;-61
2022/06/23 05:43:04;;;;;;;19.75;13.52;;;18.20;99.90;;;;;;4992205;28;20054;-62
2022/06/23 05:45:43;;;;;;;20.20;12.85;;;18.60;99.90;;;;;;4991786;28;20037;-62
2022/06/23 05:48:13;;;;;;;21.92;13.35;;;;;;;;;;4990994;28;20030;-62
2022/06/23 05:50:45;;;;;;;18.70;12.30;;;;;;;;;;4991824;28;20084;-62
2022/06/23 05:53:15;;;;;;;20.00;13.23;;;;;;;;;;4991936;28;20057;-61
2022/06/23 05:56:13;;;;;;;17.88;12.18;;;;;;;;;;4991946;28;20031;-59
2022/06/23 05:58:57;;;;;;;18.10;12.93;;;;;;;;;;4931872;28;20049;-62
2022/06/23 06:01:35;;;;;;;20.42;12.32;;;18.80;99.90;;;;;;4974358;28;20038;-61
2022/06/23 06:04:22;;;;;;;19.02;12.55;;;19.30;99.90;;;;;;4992389;28;20027;-62
2022/06/23 06:06:49;;;;;;;22.13;13.05;;;19.40;99.90;;;;;;4992162;28;20027;-61
2022/06/23 06:12:08;;;;;;;20.77;13.05;;;19.50;99.90;;;;;;4992672;28;20042;-61
2022/06/23 06:14:39;;;;;;;17.67;12.75;;;19.60;99.90;;;;;;4975080;28;20027;-63
2022/06/23 06:17:06;;;;;;;21.85;13.68;;;19.70;99.90;;;;;;4999247;28;20022;-64
2022/06/23 06:19:33;;;;;;;17.75;12.52;;;19.70;99.90;;;;;;5018093;28;20055;-65
2022/06/23 06:22:30;;;;;;;18.73;13.03;;;19.80;99.90;;;;;;4998279;28;20030;-65
2022/06/23 06:24:57;;;;;;;20.20;12.82;;;19.90;99.90;;;;;;5014209;28;20437;-64
2022/06/23 06:27:23;;;;;;;19.75;13.45;;;20.10;99.90;;;;;;5014182;28;20025;-64
2022/06/23 06:29:50;;;;;;;21.15;13.48;;;20.10;99.90;;;;;;5015050;28;20030;-66
2022/06/23 06:32:30;;;;;;;18.77;13.05;;;20.20;99.90;;;;;;5015170;28;20149;-65
2022/06/23 06:35:21;;;;;;;17.75;12.70;;;20.40;99.90;;;;;;4995657;28;20510;-66
2022/06/23 06:37:53;;;;;;;19.50;13.18;;;20.50;99.90;;;;;;4994639;28;20034;-67
2022/06/23 06:40:19;;;;;;;19.88;13.68;;;20.60;99.90;;;;;;4995365;28;20074;-66
2022/06/23 06:42:50;;;;;;;18.85;13.52;;;20.60;99.90;;;;;;4994868;28;20559;-67
2022/06/23 06:45:19;;;;;;;18.00;13.20;;;20.70;99.90;;;;;;4995061;28;20109;-66
2022/06/23 06:47:46;;;;;;;18.45;13.90;;;20.80;99.90;;;;;;4976396;28;20022;-67
2022/06/23 06:50:14;;;;;;;18.65;13.88;;;20.90;99.90;;;;;;4980705;28;20033;-67
2022/06/23 06:52:40;;;;;;;;;;;21.00;99.90;;;;;;5014858;28;20041;-66
2022/06/23 06:55:13;;;;;;;39.25;18.85;;;21.10;99.90;;;;;;5014368;28;19987;-64
2022/06/23 06:58:03;;;;;;;20.27;13.70;;;21.20;99.90;;;;;;5014069;28;20105;-67
2022/06/23 07:00:35;;;;;;;19.48;13.77;;;21.30;99.90;;;;;;5015113;28;20068;-65
2022/06/23 07:03:03;;;;;;;20.92;12.93;;;21.40;99.90;;;;;;5014441;28;20052;-65
2022/06/23 07:05:32;;;;;;;21.15;12.73;;;21.40;99.90;;;;;;5014447;28;20111;-63
2022/06/23 07:08:10;;;;;;;20.25;13.13;;;21.50;99.90;;;;;;5013730;28;20056;-69
2022/06/23 07:10:42;;;;;;;21.35;13.23;;;21.70;99.90;;;;;;5014471;28;20500;-68
2022/06/23 07:13:25;;;;;;;20.55;13.40;;;21.80;99.90;;;;;;5014255;28;20561;-65
2022/06/23 07:16:15;;;;;;;18.08;13.35;;;21.90;99.90;;;;;;5014260;28;20036;-66
2022/06/23 07:18:51;;;;;;;18.55;12.90;;;22.00;99.90;;;;;;5014455;28;20489;-62
2022/06/23 07:21:34;;;;;;;17.45;12.60;;;22.10;99.90;;;;;;5012820;28;20076;-67
2022/06/23 07:24:26;;;;;;;22.15;14.80;;;22.20;99.90;;;;;;5014130;28;20534;-67
2022/06/23 07:26:59;;;;;;;19.55;13.45;;;22.30;99.90;;;;;;4996264;28;20080;-64
2022/06/23 07:29:29;;;;;;;16.98;12.43;;;22.40;99.90;;;;;;4995696;28;20501;-66
2022/06/23 07:32:32;;;;;;;19.88;12.73;;;22.50;99.90;;;;;;5013856;28;20043;-67
2022/06/23 07:35:19;;;;;;;21.10;13.00;;;22.70;99.90;;;;;;5013604;28;20029;-66
2022/06/23 07:38:06;;;;;;;22.70;13.93;;;22.80;99.90;;;;;;5011176;28;20474;-65
2022/06/23 07:40:57;;;;;;;20.15;12.55;;;23.00;99.90;;;;;;5012483;28;20485;-67
2022/06/23 07:43:44;;;;;;;22.50;13.27;;;23.00;99.90;;;;;;5013280;28;20550;-66
2022/06/23 07:46:10;;;;;;;18.52;12.90;;;23.20;99.90;;;;;;4995778;28;20026;-66
2022/06/23 07:48:37;;;;;;;31.90;14.32;;;23.30;99.90;;;;;;5012915;28;20025;-67
2022/06/23 07:51:08;;;;;;;21.70;12.60;;;23.40;99.90;;;;;;5013544;28;20025;-67
2022/06/23 07:53:47;;;;;;;16.88;11.90;;;23.50;99.90;;;;;;5013536;28;20105;-64
2022/06/23 07:56:17;;;;;;;18.42;12.57;;;23.60;99.90;;;;;;5013485;28;20367;-65
2022/06/23 07:58:44;;;;;;;24.42;12.90;;;23.70;99.90;;;;;;5012989;28;20104;-63
2022/06/23 08:01:13;;;;;;;17.52;13.13;;;23.80;99.90;;;;;;5013522;28;20030;-64
2022/06/23 08:03:51;;;;;;;17.17;12.75;;;23.80;99.90;;;;;;5013620;28;20018;-65
2022/06/23 08:06:18;;;;;;;18.15;12.63;;;23.90;99.90;;;;;;4995784;28;20075;-64
2022/06/23 08:08:45;;;;;;;20.33;12.67;;;24.00;99.90;;;;;;5012587;28;20026;-65
2022/06/23 08:14:05;;;;;;;18.42;12.40;;;24.30;99.90;;;;;;5013518;28;20493;-64
2022/06/23 08:16:50;;;;;;;16.77;12.07;;;24.40;99.90;;;;;;4995502;28;20390;-65
2022/06/23 08:19:54;;;;;;;16.67;12.45;;;24.50;99.50;;;;;;4992887;28;20022;-62
2022/06/23 08:22:27;;;;;;;17.92;12.75;;;24.60;99.50;;;;;;4989781;28;20491;-66
2022/06/23 08:24:57;;;;;;;21.60;12.10;;;24.80;98.70;;;;;;4993203;28;20125;-65
2022/06/23 08:27:28;;;;;;;16.58;12.43;;;24.90;98.50;;;;;;4992702;28;20382;-66
2022/06/23 08:30:03;;;;;;;18.17;12.35;;;25.00;98.10;;;;;;4993521;28;20482;-66
2022/06/23 08:32:30;;;;;;;18.35;12.13;;;25.10;98.00;;;;;;4993462;28;20110;-63
2022/06/23 08:35:07;;;;;;;17.48;11.93;;;25.10;97.70;;;;;;4993626;28;20030;-66
2022/06/23 08:37:45;;;;;;;18.55;12.88;;;25.20;97.80;;;;;;4992392;28;20033;-66
2022/06/23 08:40:45;;;;;;;16.73;12.52;;;25.40;98.10;;;;;;4984349;28;20119;-66
2022/06/23 08:43:21;;;;;;;19.63;13.57;;;25.50;98.00;;;;;;4995356;28;20036;-65
2022/06/23 08:45:50;;;;;;;19.30;14.20;;;25.70;97.40;;;;;;5012234;28;20033;-65
2022/06/23 08:48:40;;;;;;;17.55;13.48;;;25.80;97.40;;;;;;5010966;28;20410;-65
2022/06/23 08:51:18;;;;;;;18.98;13.10;;;25.90;97.00;;;;;;5012328;28;20233;-66
2022/06/23 08:53:54;;;;;;;18.65;13.40;;;26.00;97.00;;;;;;5012655;28;20479;-65
2022/06/23 08:56:24;;;;;;;18.52;12.90;;;26.10;96.40;;;;;;5012192;28;20061;-66
2022/06/23 08:59:19;;;;;;;17.70;13.80;;;26.30;97.00;;;;;;5011687;28;20033;-66
2022/06/23 09:02:03;;;;;;;16.55;12.85;;;26.40;96.70;;;;;;5012326;28;20113;-66
2022/06/23 09:04:53;;;;;;;17.75;13.20;;;26.60;96.40;;;;;;5012389;28;20056;-66
2022/06/23 09:07:21;;;;;;;16.70;12.90;;;26.60;95.80;;;;;;5011178;28;20107;-65
2022/06/23 09:09:59;;;;;;;18.92;12.88;;;26.70;95.90;;;;;;5006423;28;20097;-65
2022/06/23 09:12:38;;;;;;;20.53;13.07;;;26.70;95.20;;;;;;4992658;28;20140;-66
2022/06/23 09:15:39;;;;;;;18.65;13.10;;;26.90;95.80;;;;;;5004272;28;20026;-65
2022/06/23 09:18:36;;;;;;;16.88;12.60;;;27.00;95.10;;;;;;4993382;28;20038;-66
2022/06/23 09:21:24;;;;;;;18.48;12.75;;;27.20;95.20;;;;;;5011478;28;20042;-64
2022/06/23 09:24:19;;;;;;;17.42;12.35;;;27.30;94.40;;;;;;5012320;28;20038;-66
2022/06/23 09:26:59;;;;;;;18.02;12.98;;;;;;;;;;5011819;28;20116;-64
2022/06/23 09:29:30;;;;;;;19.10;13.77;;;27.50;95.00;;;;;;5011310;28;20018;-66
2022/06/23 09:32:12;;;;;;;16.90;13.18;;;27.80;94.50;;;;;;5011662;28;20022;-66
2022/06/23 09:35:05;;;;;;;18.85;14.02;;;27.90;93.80;;;;;;5011775;28;20029;-63
2022/06/23 09:37:42;;;;;;;17.98;13.40;;;28.10;94.00;;;;;;5011171;28;20482;-64
2022/06/23 09:40:42;;;;;;;19.33;13.55;;;28.10;92.20;;;;;;5011970;28;20026;-63
2022/06/23 09:43:11;;;;;;;20.33;13.50;;;28.20;93.00;;;;;;4994026;28;20033;-63
2022/06/23 09:45:39;;;;;;;17.58;12.98;;;28.20;92.30;;;;;;4993746;28;20092;-63
2022/06/23 09:48:23;;;;;;;16.75;12.88;;;28.40;92.10;;;;;;5010616;28;20026;-62
2022/06/23 09:51:31;;;;;;;17.08;13.48;;;28.50;92.30;;;;;;5011496;28;20041;-60
2022/06/23 09:54:05;;;;;;;19.10;13.38;;;28.40;91.20;;;;;;5011904;28;20022;-62
2022/06/23 09:56:41;;;;;;;17.58;12.88;;;28.60;91.20;;;;;;4993670;28;20108;-61
2022/06/23 09:59:17;;;;;;;20.25;13.30;;;28.80;91.30;;;;;;5011236;28;20050;-63
2022/06/23 10:01:52;;;;;;;16.70;12.68;;;28.80;90.90;;;;;;5014748;28;20022;-59
2022/06/23 10:04:52;;;;;;;22.92;14.48;;;28.90;90.20;;;;;;5015406;28;20050;-60
2022/06/23 10:07:29;;;;;;;17.10;12.98;;;29.30;90.00;;;;;;5014916;28;20030;-60
2022/06/23 10:10:32;;;;;;;17.23;13.32;;;29.30;87.80;;;;;;5015390;28;20022;-58
2022/06/23 10:13:10;;;;;;;17.63;13.20;;;29.30;86.50;;;;;;5014996;28;20014;-60
2022/06/23 10:16:07;;;;;;;17.05;13.25;;;29.40;87.10;;;;;;4997851;28;20103;-60
2022/06/23 10:18:45;;;;;;;16.10;13.38;;;29.40;86.00;;;;;;5014164;28;20037;-61
2022/06/23 10:21:29;;;;;;;21.05;13.30;;;29.60;86.00;;;;;;5014881;28;20022;-61
2022/06/23 10:24:23;;;;;;;17.33;13.80;;;29.70;83.70;;;;;;5013984;28;20026;-62
2022/06/23 10:27:13;;;;;;;18.20;13.00;;;29.60;83.00;;;;;;5014365;28;20485;-60
2022/06/23 10:30:03;;;;;;;19.15;12.75;;;29.50;82.70;;;;;;5014757;28;20029;-60
2022/06/23 10:32:57;;;;;;;16.65;12.88;;;29.90;84.10;;;;;;5014554;28;20026;-61
2022/06/23 10:35:41;;;;;;;17.80;13.00;;;;;;;;;;5013692;28;20083;-60
2022/06/23 10:38:25;;;;;;;19.13;13.30;;;30.20;80.50;;;;;;5014282;28;20079;-59
2022/06/23 10:41:10;;;;;;;18.30;12.90;;;;;;;;;;5014632;28;20033;-61
2022/06/23 10:43:56;;;;;;;17.58;13.02;;;;;;;;;;5014949;28;20076;-60
2022/06/23 10:46:30;;;;;;;16.00;12.32;;;;;;;;;;5014410;28;20026;-62
2022/06/23 10:48:59;;;;;;;17.75;13.20;;;;;;;;;;5014139;28;20036;-62
2022/06/23 10:51:25;;;;;;;18.13;12.93;;;;;;;;;;4996995;28;20696;-59
2022/06/23 10:54:16;;;;;;;17.38;12.50;;;;;;;;;;5014483;28;20614;-62
2022/06/23 10:56:42;;;;;;;17.63;11.98;;;;;;;;;;4987203;28;20548;-62
2022/06/23 10:59:20;;;;;;;17.58;12.40;;;;;;;;;;5014155;28;20034;-63
2022/06/23 11:01:46;;;;;;;;;;;;;;;;;;5014945;28;20033;-63
2022/06/23 11:04:14;;;;;;;16.85;12.95;;;;;;;;;;5014548;28;20008;-62
2022/06/23 11:07:07;;;;;;;16.30;12.60;;;;;;;;;;5014193;28;20046;-62
2022/06/23 11:09:41;;;;;;;16.00;12.02;;;;;;;;;;5011208;28;20030;-62
2022/06/23 11:12:07;;;;;;;17.80;12.30;;;;;;;;;;5013267;28;20022;-62
2022/06/23 11:14:42;;;;;;;18.08;12.57;;;;;;;;;;5014076;28;20030;-62
2022/06/23 11:17:16;;;;;;;16.42;12.80;;;;;;;;;;5013482;28;20038;-59
2022/06/23 11:19:52;;;;;;;17.10;12.80;;;;;;;;;;5014318;28;20022;-60
2022/06/23 11:22:44;;;;;;;17.15;12.40;;;30.60;81.50;;;;;;4996758;28;20069;-61
2022/06/23 11:25:34;;;;;;;18.38;12.93;;;33.30;68.10;;;;;;5015776;28;20124;-60
2022/06/23 11:28:26;;;;;;;16.65;13.00;;;;;;;;;;5032801;28;20025;-63
2022/06/23 11:31:01;;;;;;;17.73;12.50;;;;;;;;;;5030407;28;20117;-62
2022/06/23 11:33:30;;;;;;;16.60;12.13;;;;;;;;;;5033344;28;20080;-60
2022/06/23 11:36:03;;;;;;;18.73;12.80;;;;;;;;;;5032082;28;20346;-61
2022/06/23 11:38:35;;;;;;;16.02;12.00;;;;;;;;;;5032664;28;20457;-61
2022/06/23 11:41:14;;;;;;;17.70;12.15;;;;;;;;;;5032093;28;20394;-61
2022/06/23 11:43:59;;;;;;;17.83;12.30;;;;;;;;;;5033360;28;20033;-62
2022/06/23 11:46:35;;;;;;;17.02;13.40;;;;;;;;;;5033260;28;20030;-61
2022/06/23 11:49:15;;;;;;;17.85;13.00;;;;;;;;;;5032558;28;20104;-61
2022/06/23 11:51:59;;;;;;;16.85;13.10;;;;;;;;;;5033361;28;20031;-61
2022/06/23 11:54:31;;;;;;;18.23;13.10;;;;;;;;;;5032977;28;20081;-62
2022/06/23 11:57:12;;;;;;;17.75;13.20;;;;;;;;;;5033239;28;20036;-60
2022/06/23 11:59:43;;;;;;;16.55;13.00;;;;;;;;;;5033354;28;20025;-61
2022/06/23 12:02:09;;;;;;;17.17;13.07;;;;;;;;;;5033721;28;20108;-61
2022/06/23 12:04:41;;;;;;;16.05;13.35;;;;;;;;;;5033162;28;20634;-63
2022/06/23 12:07:13;;;;;;;17.95;13.05;;;;;;;;;;5033039;28;20056;-58
2022/06/23 12:09:39;;;;;;;17.20;13.23;;;;;;;;;;5032879;28;20021;-61
2022/06/23 12:12:06;;;;;;;17.10;13.35;;;;;;;;;;5032935;28;20022;-61
2022/06/23 12:14:33;;;;;;;17.63;13.20;;;;;;;;;;5033084;28;20017;-62
2022/06/23 12:17:17;;;;;;;17.88;13.35;;;;;;;;;;5031715;28;20037;-62
2022/06/23 12:19:48;;;;;;;18.73;13.68;;;;;;;;;;5013361;28;20048;-61
2022/06/23 12:22:22;;;;;;;19.27;14.10;;;;;;;;;;4995334;28;20021;-62
2022/06/23 12:24:57;;;;;;;16.38;13.70;;;;;;;;;;5013018;28;20034;-63
2022/06/23 12:27:30;;;;;;;17.05;13.18;;;;;;;;;;4994564;28;20091;-62
2022/06/23 12:30:14;;;;;;;16.20;13.40;;;;;;;;;;5013194;28;20053;-63
2022/06/23 12:32:54;;;;;;;17.52;13.32;;;;;;;;;;5013202;28;20046;-63
2022/06/23 12:35:20;;;;;;;16.30;13.18;;;;;;;;;;4995340;28;20398;-63
2022/06/23 12:37:46;;;;;;;18.42;13.40;;;;;;;;;;5012255;28;20095;-62
2022/06/23 12:40:15;;;;;;;19.00;14.18;;;;;;;;;;5013031;28;20054;-63
2022/06/23 12:42:52;;;;;;;18.67;14.35;;;;;;;;;;4995360;28;20053;-62
2022/06/23 12:45:37;;;;;;;16.92;13.30;;;;;;;;;;5012461;28;20034;-63
2022/06/23 12:48:15;;;;;;;16.10;13.40;;;;;;;;;;5011572;28;20026;-61
2022/06/23 12:50:56;;;;;;;17.52;13.65;;;;;;;;;;5012626;28;20455;-62
2022/06/23 12:53:56;;;;;;;19.10;14.15;;;34.20;67.10;;;;;;5013357;28;20533;-62
2022/06/23 12:56:41;;;;;;;16.90;13.43;;;;;;;;;;4994537;28;20470;-63
2022/06/23 12:59:12;;;;;;;17.23;13.43;;;;;;;;;;4988301;28;20025;-60
2022/06/23 13:01:47;;;;;;;16.55;13.38;;;;;;;;;;5004050;28;20023;-59
2022/06/23 13:04:25;;;;;;;17.33;13.77;;;;;;;;;;5002950;28;20018;-59
2022/06/23 13:06:51;;;;;;;15.82;13.00;;;;;;;;;;5018158;28;20095;-59
2022/06/23 13:09:31;;;;;;;16.52;13.30;;;;;;;;;;4998159;28;20030;-61
2022/06/23 13:12:09;;;;;;;17.92;14.15;;;;;;;;;;5017815;28;20022;-60
2022/06/23 13:14:43;;;;;;;16.90;13.70;;;;;;;;;;5003496;28;20018;-60
2022/06/23 13:17:21;;;;;;;19.20;14.23;;;;;;;;;;4997484;23;20130;-63
2022/06/23 13:19:52;;;;;;;15.88;13.60;;;;;;;;;;5001469;28;20056;-62
2022/06/23 13:22:18;;;;;;;17.85;13.68;;;;;;;;;;5001375;28;20371;-64
2022/06/23 13:24:44;;;;;;;16.20;13.52;;;;;;;;;;4999633;28;20018;-63
2022/06/23 13:27:16;;;;;;;17.60;14.25;;;;;;;;;;5002004;28;20026;-60
2022/06/23 13:29:53;;;;;;;18.02;14.20;;;;;;;;;;4992326;28;20038;-59
2022/06/23 13:32:39;;;;;;;16.63;13.73;;;;;;;;;;5010292;28;20486;-63
2022/06/23 13:35:26;;;;;;;17.08;13.90;;;;;;;;;;4991997;28;20446;-64
2022/06/23 13:37:59;;;;;;;17.33;14.05;;;;;;;;;;4987948;28;20132;-62
2022/06/23 13:40:45;;;;;;;18.60;14.20;;;;;;;;;;5010023;28;20116;-64
2022/06/23 13:43:15;;;;;;;16.83;13.63;;;;;;;;;;5005833;28;20038;-64
2022/06/23 13:45:45;;;;;;;17.30;13.40;;;;;;;;;;5010041;28;20058;-64
2022/06/23 13:48:33;;;;;;;17.45;13.68;;;;;;;;;;4771510;28;10000912;-64
2022/06/23 13:51:07;;;;;;;20.50;14.85;;;;;;;;;;4993942;28;20663;-63
2022/06/23 13:53:52;;;;;;;17.33;13.52;;;;;;;;;;5006097;28;20025;-64
2022/06/23 13:56:29;;;;;;;16.38;13.93;;;;;;;;;;5002390;28;20105;-63
2022/06/23 13:59:00;;;;;;;17.08;13.43;;;;;;;;;;5004584;28;20386;-64
2022/06/23 14:01:32;;;;;;;16.75;13.90;;;;;;;;;;5006033;28;20022;-64
2022/06/23 14:04:05;;;;;;;17.45;13.90;;;;;;;;;;5006583;28;20018;-64
2022/06/23 14:06:35;;;;;;;16.45;13.80;;;;;;;;;;5001425;28;20026;-64
2022/06/23 14:09:09;;;;;;;16.70;14.00;;;;;;;;;;4985965;28;20022;-63